KRID/RID METAR and TAF weather

Enter ICAO airport designator
Station Type Date Time Source
KRID METAR 2019/10/23 12:55 UTC NOAA

KRID 231255Z AUTO 23008KT 10SM CLR 03/03 A3007 RMK AO2


Station Type Date Time Source
KRID Decoded METAR 2019/10/23 12:55 UTC NOAA

Station name not available
Oct 23, 2019 - 08:55 AM EDT / 2019.10.23 1255 UTC
Wind: from the SW (230 degrees) at 9 MPH (8 KT):0
Visibility: 10 mile(s):0
Sky conditions: clear
Temperature: 37 F (3 C)
Dew Point: 37 F (3 C)
Relative Humidity: 100%
Pressure (altimeter): 30.07 in. Hg (1018 hPa)
ob: KRID 231255Z AUTO 23008KT 10SM CLR 03/03 A3007 RMK AO2
cycle: 13

Station Type Date Time Source
KRID TAF UTC NOAA

Error!

Example: see airport list